Time;durP1;ratioP1;P1;durP2;ratioP2;P2;SDS_P1;SDS_P2;PMS_P1;PMS_P2;Temp;Humidity;BMP_temperature;BMP_pressure;BME280_temperature;BME280_humidity;BME280_pressure;Samples;Min_cycle;Max_cycle;Signal;HPM_P1;HPM_P2
2023/12/28 00:00:30;;;;;;;86.45;43.22;;;;;;;;;;6087091;29;20060;-93
2023/12/28 00:03:32;;;;;;;62.03;33.87;;;;;;;;;;6080376;29;20048;-91
2023/12/28 00:06:34;;;;;;;70.88;35.55;;;;;;;;;;6084159;29;20048;-94
2023/12/28 00:09:36;;;;;;;41.70;24.83;;;;;;;;;;6086107;29;20052;-93
2023/12/28 00:12:37;;;;;;;32.65;20.92;;;;;;;;;;6082686;29;20120;-93
2023/12/28 00:15:41;;;;;;;31.67;19.17;;;;;;;;;;6080712;29;20328;-93
2023/12/28 00:18:43;;;;;;;32.20;19.37;;;;;;;;;;6083454;29;20049;-93
2023/12/28 00:21:44;;;;;;;27.60;19.33;;;;;;;;;;6082654;29;20048;-94
2023/12/28 00:24:46;;;;;;;31.48;19.02;;;;;;;;;;6087335;29;20053;-94
2023/12/28 00:27:48;;;;;;;27.77;19.00;;;;;;;;;;6084428;29;20055;-93
2023/12/28 00:30:52;;;;;;;27.95;19.52;;;;;;;;;;6079922;29;20071;-93
2023/12/28 00:33:54;;;;;;;29.13;18.90;;;;;;;;;;6083920;29;20056;-93
2023/12/28 00:36:55;;;;;;;27.23;18.83;;;;;;;;;;6089446;29;20341;-94
2023/12/28 00:39:57;;;;;;;34.63;22.27;;;;;;;;;;6081022;29;20051;-94
2023/12/28 00:42:59;;;;;;;34.13;22.98;;;;;;;;;;6081723;29;20052;-94
2023/12/28 00:46:03;;;;;;;33.38;22.05;;;;;;;;;;6083622;29;20051;-94
2023/12/28 00:49:05;;;;;;;34.10;23.02;;;;;;;;;;6083036;29;20052;-93
2023/12/28 00:52:07;;;;;;;36.42;22.58;;;;;;;;;;6086262;29;20075;-93
2023/12/28 00:55:09;;;;;;;39.17;24.13;;;;;;;;;;6081900;29;20072;-94
2023/12/28 00:58:10;;;;;;;37.92;23.33;;;;;;;;;;6081787;29;20052;-94
2023/12/28 01:01:14;;;;;;;37.38;24.70;;;;;;;;;;6079696;29;20420;-94
2023/12/28 01:04:16;;;;;;;37.50;23.73;;;;;;;;;;6083227;29;20053;-93
2023/12/28 01:07:19;;;;;;;37.85;24.42;;;;;;;;;;6081659;29;20049;-93
2023/12/28 01:10:21;;;;;;;37.25;23.80;;;;;;;;;;6082393;29;20045;-93
2023/12/28 01:13:23;;;;;;;38.50;24.58;;;;;;;;;;6081446;29;20054;-94
2023/12/28 01:16:26;;;;;;;39.30;25.67;;;;;;;;;;6082635;29;20056;-94
2023/12/28 01:19:27;;;;;;;39.60;25.20;;;;;;;;;;6079144;29;20099;-95
2023/12/28 01:22:29;;;;;;;38.20;23.75;;;;;;;;;;6083800;29;20059;-93
2023/12/28 01:25:31;;;;;;;33.78;23.67;;;;;;;;;;6081585;29;20051;-94
2023/12/28 01:28:33;;;;;;;38.90;25.00;;;;;;;;;;6081774;29;20064;-95
2023/12/28 01:31:38;;;;;;;35.92;24.15;;;;;;;;;;6080290;29;20041;-94
2023/12/28 01:34:41;;;;;;;41.45;25.42;;;;;;;;;;6078262;29;20108;-94
2023/12/28 01:37:43;;;;;;;36.75;25.67;;;;;;;;;;6079752;29;20055;-93
2023/12/28 01:40:46;;;;;;;41.90;27.95;;;;;;;;;;6085098;29;20047;-96
2023/12/28 01:43:47;;;;;;;45.22;26.50;;;;;;;;;;6082546;29;20049;-96
2023/12/28 01:46:51;;;;;;;42.50;27.52;;;;;;;;;;6083606;29;20057;-93
2023/12/28 01:49:53;;;;;;;42.60;27.85;;;;;;;;;;6077585;29;20057;-95
2023/12/28 01:52:56;;;;;;;43.63;27.17;;;;;;;;;;6083594;29;20363;-94
2023/12/28 01:55:59;;;;;;;45.05;28.63;;;;;;;;;;6076089;29;20061;-93
2023/12/28 01:59:00;;;;;;;37.63;26.83;;;;;;;;;;6069321;29;20056;-93
2023/12/28 02:02:04;;;;;;;41.90;28.55;;;;;;;;;;6077612;29;20356;-94
2023/12/28 02:05:06;;;;;;;42.13;27.52;;;;;;;;;;6083101;29;20052;-94
2023/12/28 02:08:08;;;;;;;40.28;27.55;;;;;;;;;;6085622;29;20340;-93
2023/12/28 02:11:10;;;;;;;42.45;27.17;;;;;;;;;;6087378;29;20060;-94
2023/12/28 02:14:12;;;;;;;40.10;27.17;;;;;;;;;;6084559;29;20053;-94
2023/12/28 02:17:21;;;;;;;42.65;28.98;;;;;;;;;;6080995;29;20045;-93
2023/12/28 02:20:23;;;;;;;41.95;27.35;;;;;;;;;;6080352;29;20053;-94
2023/12/28 02:23:25;;;;;;;41.33;28.13;;;;;;;;;;6081996;29;20060;-94
2023/12/28 02:26:28;;;;;;;41.42;27.38;;;;;;;;;;6085696;29;20104;-94
2023/12/28 02:29:30;;;;;;;41.40;27.42;;;;;;;;;;6086063;29;20050;-94
2023/12/28 02:32:43;;;;;;;44.03;27.65;;;;;;;;;;6083104;29;20359;-94
2023/12/28 02:35:48;;;;;;;39.83;27.13;;;;;;;;;;6082513;29;20057;-95
2023/12/28 02:38:51;;;;;;;37.67;26.58;;;;;;;;;;6079801;29;20367;-94
2023/12/28 02:41:55;;;;;;;39.85;26.13;;;;;;;;;;6079802;29;20268;-94
2023/12/28 02:44:57;;;;;;;41.50;26.90;;;;;;;;;;6082996;29;20060;-93
2023/12/28 02:47:58;;;;;;;41.05;26.73;;;;;;;;;;6085260;29;20060;-93
2023/12/28 02:51:00;;;;;;;40.15;26.30;;;;;;;;;;6079302;29;20096;-93
2023/12/28 02:54:02;;;;;;;40.33;26.38;;;;;;;;;;6083783;29;20092;-94
2023/12/28 02:57:05;;;;;;;39.28;26.45;;;;;;;;;;6078420;29;20044;-95
2023/12/28 03:00:08;;;;;;;39.13;26.48;;;;;;;;;;6081721;29;20090;-94
2023/12/28 03:03:10;;;;;;;39.47;25.48;;;;;;;;;;6078512;29;20056;-93
2023/12/28 03:06:12;;;;;;;38.33;24.58;;;;;;;;;;6082256;29;20056;-94
2023/12/28 03:09:13;;;;;;;35.42;24.67;;;;;;;;;;6079904;29;20048;-93
2023/12/28 03:12:17;;;;;;;38.03;25.55;;;;;;;;;;6080396;29;20052;-93
2023/12/28 03:15:19;;;;;;;38.00;26.17;;;;;;;;;;6082443;29;20077;-94
2023/12/28 03:18:20;;;;;;;36.95;25.05;;;;;;;;;;6080141;29;20449;-93
2023/12/28 03:21:22;;;;;;;38.92;26.48;;;;;;;;;;6086237;29;20060;-93
2023/12/28 03:24:24;;;;;;;38.30;26.00;;;;;;;;;;6082158;29;20057;-94
2023/12/28 03:27:27;;;;;;;37.90;25.83;;;;;;;;;;6079129;29;20157;-94
2023/12/28 03:30:29;;;;;;;43.27;26.00;;;;;;;;;;6081171;29;20078;-94
2023/12/28 03:33:31;;;;;;;32.45;23.35;;;;;;;;;;6082764;29;20463;-94
2023/12/28 03:36:33;;;;;;;37.47;25.80;;;;;;;;;;6082115;29;20221;-94
2023/12/28 03:39:35;;;;;;;38.80;25.25;;;;;;;;;;6080189;29;20052;-94
2023/12/28 03:42:38;;;;;;;40.42;26.13;;;;;;;;;;6083797;29;20298;-94
2023/12/28 03:45:40;;;;;;;36.22;24.77;;;;;;;;;;6083183;29;20072;-94
2023/12/28 03:48:41;;;;;;;41.25;26.08;;;;;;;;;;6085347;29;20056;-94
2023/12/28 03:51:43;;;;;;;39.83;26.08;;;;;;;;;;6082318;29;20163;-94
2023/12/28 03:54:45;;;;;;;36.30;25.65;;;;;;;;;;6082450;29;20052;-93
2023/12/28 03:57:48;;;;;;;37.67;25.30;;;;;;;;;;6082427;29;20044;-94
2023/12/28 04:00:50;;;;;;;38.67;26.48;;;;;;;;;;6084348;29;20367;-94
2023/12/28 04:03:52;;;;;;;36.88;25.20;;;;;;;;;;6084131;29;20090;-93
2023/12/28 04:06:53;;;;;;;37.40;25.45;;;;;;;;;;6080641;29;20056;-93
2023/12/28 04:09:56;;;;;;;36.03;24.75;;;;;;;;;;6078069;29;20056;-94
2023/12/28 04:12:59;;;;;;;35.03;25.25;;;;;;;;;;6082811;29;20130;-90
2023/12/28 04:16:01;;;;;;;41.20;27.05;;;;;;;;;;6083453;29;20059;-94
2023/12/28 04:19:03;;;;;;;40.95;26.38;;;;;;;;;;6080302;29;20040;-94
2023/12/28 04:22:05;;;;;;;41.05;26.17;;;;;;;;;;6080763;29;20053;-94
2023/12/28 04:25:07;;;;;;;41.03;26.00;;;;;;;;;;6080676;29;20047;-94
2023/12/28 04:28:10;;;;;;;40.55;27.65;;;;;;;;;;6078896;29;20049;-94
2023/12/28 04:31:12;;;;;;;47.40;27.40;;;;;;;;;;6084245;29;20059;-94
2023/12/28 04:34:14;;;;;;;38.83;25.92;;;;;;;;;;6080728;29;20049;-93
2023/12/28 04:37:16;;;;;;;40.13;27.92;;;;;;;;;;6084458;29;20044;-94
2023/12/28 04:40:18;;;;;;;37.13;25.98;;;;;;;;;;6081976;29;20062;-95
2023/12/28 04:43:23;;;;;;;36.45;25.17;;;;;;;;;;6083543;29;20068;-93
2023/12/28 04:46:25;;;;;;;44.60;26.33;;;;;;;;;;6076915;29;20340;-94
2023/12/28 04:49:27;;;;;;;39.58;24.67;;;;;;;;;;6076010;29;20045;-93
2023/12/28 04:52:28;;;;;;;35.75;25.05;;;;;;;;;;6077334;29;20045;-95
2023/12/28 04:55:30;;;;;;;37.53;25.70;;;;;;;;;;6078644;29;20052;-94
2023/12/28 04:58:33;;;;;;;40.08;26.45;;;;;;;;;;6077886;29;20053;-93
2023/12/28 05:01:41;;;;;;;40.88;26.35;;;;;;;;;;6078281;29;20099;-95
2023/12/28 05:04:43;;;;;;;36.50;26.38;;;;;;;;;;6079945;29;20048;-94
2023/12/28 05:07:45;;;;;;;37.80;25.70;;;;;;;;;;6076323;29;20057;-94
2023/12/28 05:10:47;;;;;;;41.25;27.02;;;;;;;;;;6081472;29;20049;-93
2023/12/28 05:13:50;;;;;;;40.20;26.73;;;;;;;;;;6076316;29;20052;-93
2023/12/28 05:16:52;;;;;;;37.72;26.88;;;;;;;;;;6080287;29;20053;-93
2023/12/28 05:19:55;;;;;;;37.05;26.17;;;;;;;;;;6079435;29;20041;-93
2023/12/28 05:22:57;;;;;;;37.50;25.38;;;;;;;;;;6078338;29;20056;-93
2023/12/28 05:25:59;;;;;;;39.63;26.25;;;;;;;;;;6075924;29;20068;-94
2023/12/28 05:29:02;;;;;;;36.58;25.85;;;;;;;;;;6078599;29;20055;-94
2023/12/28 05:32:04;;;;;;;41.73;27.50;;;;;;;;;;6079565;29;20060;-94
2023/12/28 05:35:07;;;;;;;42.55;26.40;;;;;;;;;;6079432;29;20056;-94
2023/12/28 05:38:09;;;;;;;39.60;26.85;;;;;;;;;;6080099;29;20378;-94
2023/12/28 05:41:11;;;;;;;36.83;25.67;;;;;;;;;;6082125;29;20256;-93
2023/12/28 05:44:15;;;;;;;36.72;25.85;;;;;;;;;;6085629;29;20363;-94
2023/12/28 05:47:16;;;;;;;36.45;26.42;;;;;;;;;;6087819;29;20060;-93
2023/12/28 05:50:18;;;;;;;39.20;25.77;;;;;;;;;;6088252;29;20052;-94
2023/12/28 05:53:20;;;;;;;42.20;26.33;;;;;;;;;;6087521;29;20060;-94
2023/12/28 05:56:22;;;;;;;41.63;27.17;;;;;;;;;;6084444;29;20053;-93
2023/12/28 05:59:26;;;;;;;41.97;26.92;;;;;;;;;;6085725;29;20064;-94
2023/12/28 06:02:27;;;;;;;39.75;26.95;;;;;;;;;;6084340;29;20060;-93
2023/12/28 06:05:29;;;;;;;44.55;27.05;;;;;;;;;;6085639;29;20108;-93
2023/12/28 06:08:31;;;;;;;47.42;28.65;;;;;;;;;;6080977;29;20045;-94
2023/12/28 06:11:33;;;;;;;41.03;27.08;;;;;;;;;;6084646;29;20356;-95
2023/12/28 06:14:36;;;;;;;38.80;27.75;;;;;;;;;;6078408;29;20060;-93
2023/12/28 06:17:39;;;;;;;39.63;26.35;;;;;;;;;;6089031;29;20116;-94
2023/12/28 06:20:41;;;;;;;39.35;26.77;;;;;;;;;;6089377;29;20117;-94
2023/12/28 06:23:43;;;;;;;42.63;27.35;;;;;;;;;;6092374;29;20414;-94
2023/12/28 06:26:46;;;;;;;35.72;24.40;;;;;;;;;;6091358;29;20061;-96
2023/12/28 06:29:49;;;;;;;38.85;25.80;;;;;;;;;;6082781;29;20047;-94
2023/12/28 06:32:51;;;;;;;36.57;24.83;;;;;;;;;;6091585;29;20107;-95
2023/12/28 06:35:53;;;;;;;37.67;24.88;;;;;;;;;;6083177;29;20448;-95
2023/12/28 06:38:54;;;;;;;35.35;23.42;;;;;;;;;;6088881;29;20100;-95
2023/12/28 06:41:56;;;;;;;34.58;23.75;;;;;;;;;;6085800;29;20045;-94
2023/12/28 06:45:00;;;;;;;36.58;23.33;;;;;;;;;;6089663;29;20071;-93
2023/12/28 06:48:01;;;;;;;38.30;23.63;;;;;;;;;;6086231;29;20076;-95
2023/12/28 06:51:04;;;;;;;38.28;24.63;;;;;;;;;;6087146;29;20057;-94
2023/12/28 06:54:05;;;;;;;35.88;23.90;;;;;;;;;;6081842;29;20107;-94
2023/12/28 06:57:09;;;;;;;35.67;23.15;;;;;;;;;;6085007;29;20116;-95
2023/12/28 07:00:14;;;;;;;44.53;24.35;;;;;;;;;;6087972;29;20052;-95
2023/12/28 07:03:16;;;;;;;38.85;24.48;;;;;;;;;;6084279;29;20367;-95
2023/12/28 07:06:18;;;;;;;37.65;25.70;;;;;;;;;;6087769;29;20247;-94
2023/12/28 07:09:20;;;;;;;36.72;24.45;;;;;;;;;;6086690;29;20060;-95
2023/12/28 07:12:22;;;;;;;38.72;25.00;;;;;;;;;;6086611;29;20281;-95
2023/12/28 07:15:25;;;;;;;38.88;24.60;;;;;;;;;;6082256;29;20055;-95
2023/12/28 07:18:45;;;;;;;35.80;24.13;;;;;;;;;;6267670;27;20664;-74
2023/12/28 07:21:47;;;;;;;40.37;25.10;;;;;;;;;;6260766;28;20053;-74
2023/12/28 07:24:49;;;;;;;39.92;25.23;;;;;;;;;;6293012;28;20057;-73
2023/12/28 07:27:52;;;;;;;35.83;25.10;;;;;;;;;;6260269;28;20065;-74
2023/12/28 07:30:54;;;;;;;37.42;25.13;;;;;;;;;;6261743;28;20060;-74
2023/12/28 07:33:57;;;;;;;34.00;23.75;;;;;;;;;;6259717;28;20088;-74
2023/12/28 07:36:59;;;;;;;33.22;22.98;;;;;;;;;;6286307;28;20060;-75
2023/12/28 07:40:01;;;;;;;33.97;22.85;;;;;;;;;;6285215;28;20374;-75
2023/12/28 07:43:04;;;;;;;36.20;24.08;;;;;;;;;;6288762;28;20059;-75
2023/12/28 07:46:06;;;;;;;35.47;22.45;;;;;;;;;;6289277;28;20255;-74
2023/12/28 07:49:09;;;;;;;41.22;26.60;;;;;;;;;;6298242;28;20281;-75
2023/12/28 07:52:11;;;;;;;37.23;22.80;;;;;;;;;;6270599;28;20394;-74
2023/12/28 07:55:13;;;;;;;33.40;21.15;;;;;;;;;;6272071;28;20358;-75
2023/12/28 07:58:16;;;;;;;31.27;20.23;;;;;;;;;;6271669;28;20110;-75
2023/12/28 08:01:19;;;;;;;30.08;20.45;;;;;;;;;;6273616;28;20057;-75
2023/12/28 08:04:22;;;;;;;29.67;19.98;;;;;;;;;;6271551;28;20091;-77
2023/12/28 08:07:24;;;;;;;29.10;18.77;;;;;;;;;;6272872;28;20064;-77
2023/12/28 08:10:26;;;;;;;27.25;17.98;;;;;;;;;;6271876;28;20079;-75
2023/12/28 08:13:28;;;;;;;28.00;17.70;;;;;;;;;;6273158;28;20049;-75
2023/12/28 08:16:30;;;;;;;25.30;17.23;;;;;;;;;;6304550;28;20289;-75
2023/12/28 08:19:34;;;;;;;29.17;17.52;;;;;;;;;;6273573;28;20103;-75
2023/12/28 08:22:36;;;;;;;28.52;17.63;;;;;;;;;;6271304;28;20053;-75
2023/12/28 08:25:38;;;;;;;24.45;16.70;;;;;;;;;;6271865;28;20068;-75
2023/12/28 08:28:40;;;;;;;27.55;16.08;;;;;;;;;;6294354;28;20056;-74
2023/12/28 08:31:42;;;;;;;25.30;14.85;;;;;;;;;;6255041;28;20259;-75
2023/12/28 08:34:47;;;;;;;23.40;16.08;;;;;;;;;;6253073;28;20049;-74
2023/12/28 08:37:49;;;;;;;23.13;16.00;;;;;;;;;;6255135;28;20114;-75
2023/12/28 08:40:52;;;;;;;22.75;15.57;;;;;;;;;;6255349;28;20060;-74
2023/12/28 08:43:55;;;;;;;19.92;14.40;;;;;;;;;;6237358;28;20049;-74
2023/12/28 08:46:56;;;;;;;23.83;13.20;;;;;;;;;;6255210;28;20069;-74
2023/12/28 08:50:00;;;;;;;24.92;14.35;;;;;;;;;;6252280;28;20053;-75
2023/12/28 08:53:02;;;;;;;19.17;12.88;;;;;;;;;;6253147;28;20049;-75
2023/12/28 08:56:13;;;;;;;19.63;12.27;;;;;;;;;;6253148;28;20061;-75
2023/12/28 08:59:15;;;;;;;18.70;11.75;;;;;;;;;;6254654;28;20462;-74
2023/12/28 09:02:17;;;;;;;19.83;13.20;;;;;;;;;;6254869;28;20053;-74
2023/12/28 09:05:20;;;;;;;19.75;14.18;;;;;;;;;;6253517;28;20355;-74
2023/12/28 09:08:22;;;;;;;21.77;14.10;;;;;;;;;;6253585;28;20057;-75
2023/12/28 09:11:26;;;;;;;20.13;13.65;;;;;;;;;;6253060;28;20071;-75
2023/12/28 09:14:28;;;;;;;23.80;14.73;;;;;;;;;;6253198;28;20053;-74
2023/12/28 09:17:32;;;;;;;22.08;14.05;;;;;;;;;;6284546;28;20340;-75
2023/12/28 09:20:35;;;;;;;22.03;14.53;;;;;;;;;;6255170;28;20063;-74
2023/12/28 09:23:38;;;;;;;22.15;14.65;;;;;;;;;;6254071;28;20464;-75
2023/12/28 09:26:40;;;;;;;20.88;14.13;;;;;;;;;;6254230;28;20049;-74
2023/12/28 09:29:42;;;;;;;23.55;14.52;;;;;;;;;;6254279;28;20340;-75
2023/12/28 09:32:45;;;;;;;25.30;15.45;;;;;;;;;;6252513;28;20053;-75
2023/12/28 09:35:49;;;;;;;20.27;15.50;;;;;;;;;;6252924;28;20056;-75
2023/12/28 09:38:51;;;;;;;20.23;14.85;;;;;;;;;;6251917;28;20088;-75
2023/12/28 09:41:56;;;;;;;25.00;14.82;;;;;;;;;;6252528;28;20061;-75
2023/12/28 09:44:58;;;;;;;23.48;16.20;;;;;;;;;;6252767;28;20233;-75
2023/12/28 09:48:02;;;;;;;26.73;16.42;;;;;;;;;;6251275;28;20232;-73
2023/12/28 09:51:06;;;;;;;25.05;16.05;;;;;;;;;;6275663;28;20277;-74
2023/12/28 09:54:08;;;;;;;42.67;24.40;;;;;;;;;;6252670;28;20060;-81
2023/12/28 09:57:10;;;;;;;59.08;31.50;;;;;;;;;;6252554;28;20061;-83
2023/12/28 10:00:13;;;;;;;87.05;41.83;;;;;;;;;;6252471;28;20084;-83
2023/12/28 10:03:16;;;;;;;64.78;32.25;;;;;;;;;;6286638;28;20058;-84
2023/12/28 10:06:21;;;;;;;47.58;26.17;;;;;;;;;;6252738;28;21298;-84
2023/12/28 10:09:25;;;;;;;39.38;23.95;;;;;;;;;;6284355;28;20053;-86
2023/12/28 10:12:28;;;;;;;48.58;27.05;;;;;;;;;;6250317;28;20391;-82
2023/12/28 10:15:34;;;;;;;34.38;20.55;;;;;;;;;;6251956;28;20293;-82
2023/12/28 10:18:36;;;;;;;26.05;17.55;;;;;;;;;;6250297;28;20057;-82
2023/12/28 10:21:43;;;;;;;25.05;17.58;;;;;;;;;;6284522;28;20049;-81
2023/12/28 10:24:45;;;;;;;22.15;16.05;;;;;;;;;;6251669;28;20092;-82
2023/12/28 10:27:47;;;;;;;24.77;16.40;;;;;;;;;;6251327;28;20033;-81
2023/12/28 10:30:49;;;;;;;24.10;15.48;;;;;;;;;;6252475;28;20057;-81
2023/12/28 10:33:53;;;;;;;23.38;16.08;;;;;;;;;;6250632;28;20375;-81
2023/12/28 10:36:57;;;;;;;22.48;16.33;;;;;;;;;;6253119;28;20042;-81
2023/12/28 10:40:01;;;;;;;26.83;15.90;;;;;;;;;;6226982;28;20260;-81
2023/12/28 10:43:07;;;;;;;22.42;16.00;;;;;;;;;;6226628;28;20225;-81
2023/12/28 10:46:09;;;;;;;26.10;17.00;;;;;;;;;;6251791;28;20049;-81
2023/12/28 10:49:13;;;;;;;26.33;16.67;;;;;;;;;;6252214;28;20076;-82
2023/12/28 10:52:17;;;;;;;24.70;16.33;;;;;;;;;;6249668;28;20065;-82
2023/12/28 10:55:27;;;;;;;23.63;16.05;;;;;;;;;;6227566;28;20084;-82
2023/12/28 10:58:36;;;;;;;24.80;17.13;;;;;;;;;;6226810;28;20062;-82
2023/12/28 11:01:40;;;;;;;24.35;16.85;;;;;;;;;;6231250;28;20049;-83
2023/12/28 11:04:46;;;;;;;25.73;17.00;;;;;;;;;;6252127;28;20221;-80
2023/12/28 11:07:56;;;;;;;24.98;16.73;;;;;;;;;;6249727;28;20247;-82
2023/12/28 11:11:01;;;;;;;24.88;17.08;;;;;;;;;;6252465;28;20057;-82
2023/12/28 11:14:03;;;;;;;22.17;15.77;;;;;;;;;;6253367;28;20073;-82
2023/12/28 11:17:05;;;;;;;25.60;16.83;;;;;;;;;;6249950;28;20054;-82
2023/12/28 11:20:09;;;;;;;27.98;17.35;;;;;;;;;;6284114;28;20080;-82
2023/12/28 11:23:14;;;;;;;25.25;16.05;;;;;;;;;;6250388;28;20076;-81
2023/12/28 11:26:20;;;;;;;21.48;14.95;;;;;;;;;;6248694;28;20053;-82
2023/12/28 11:29:22;;;;;;;23.90;16.45;;;;;;;;;;6251382;28;20056;-81
2023/12/28 11:32:24;;;;;;;24.25;16.58;;;;;;;;;;6252584;28;20079;-83
2023/12/28 11:35:36;;;;;;;23.30;16.58;;;;;;;;;;6250193;28;20335;-81
2023/12/28 11:38:41;;;;;;;22.52;16.67;;;;;;;;;;6249355;28;20336;-82
2023/12/28 11:41:43;;;;;;;26.27;17.92;;;;;;;;;;6250954;28;20095;-82
2023/12/28 11:44:45;;;;;;;27.67;17.98;;;;;;;;;;6250813;28;20060;-82
2023/12/28 11:47:47;;;;;;;29.65;19.00;;;;;;;;;;6250351;28;20037;-83
2023/12/28 11:50:51;;;;;;;28.67;18.42;;;;;;;;;;6249105;28;20565;-82
2023/12/28 11:53:56;;;;;;;24.85;17.85;;;;;;;;;;6251012;28;20221;-81
2023/12/28 11:56:58;;;;;;;28.33;18.17;;;;;;;;;;6252653;28;20458;-82
2023/12/28 12:00:00;;;;;;;30.80;19.52;;;;;;;;;;6251096;28;20399;-82
2023/12/28 12:03:03;;;;;;;31.35;20.15;;;;;;;;;;6274268;28;20055;-82
2023/12/28 12:06:07;;;;;;;30.45;18.83;;;;;;;;;;6255736;28;20103;-82
2023/12/28 12:09:14;;;;;;;28.25;19.50;;;;;;;;;;6254247;28;20557;-83
2023/12/28 12:12:17;;;;;;;30.13;18.48;;;;;;;;;;6252526;28;20351;-81
2023/12/28 12:15:19;;;;;;;27.02;18.60;;;;;;;;;;6255389;28;20438;-76
2023/12/28 12:18:21;;;;;;;27.35;19.23;;;;;;;;;;6255745;28;20087;-75
2023/12/28 12:21:24;;;;;;;29.60;19.27;;;;;;;;;;6252026;28;20061;-74
2023/12/28 12:24:27;;;;;;;26.03;18.13;;;;;;;;;;6253448;28;20057;-76
2023/12/28 12:27:29;;;;;;;26.67;18.38;;;;;;;;;;6254721;28;20045;-75
2023/12/28 12:30:31;;;;;;;26.95;18.75;;;;;;;;;;6252829;28;20057;-75
2023/12/28 12:33:34;;;;;;;25.38;18.27;;;;;;;;;;6253729;28;20045;-74
2023/12/28 12:36:36;;;;;;;26.92;19.60;;;;;;;;;;6253225;28;20054;-75
2023/12/28 12:39:39;;;;;;;28.83;18.17;;;;;;;;;;6254721;28;20056;-75
2023/12/28 12:42:42;;;;;;;27.23;17.25;;;;;;;;;;6249090;28;20386;-75
2023/12/28 12:45:43;;;;;;;23.42;16.50;;;;;;;;;;6286055;28;20053;-75
2023/12/28 12:48:55;;;;;;;25.15;17.13;;;;;;;;;;6256142;28;20407;-75
2023/12/28 12:51:57;;;;;;;29.55;17.83;;;;;;;;;;6253228;28;20049;-75
2023/12/28 12:55:01;;;;;;;26.83;17.30;;;;;;;;;;6228288;28;20050;-76
2023/12/28 12:58:04;;;;;;;23.88;15.63;;;;;;;;;;6231001;28;20064;-76
2023/12/28 13:01:11;;;;;;;21.55;14.52;;;;;;;;;;6253339;28;20099;-76
2023/12/28 13:04:14;;;;;;;20.60;14.80;;;;;;;;;;6253898;28;20366;-76
2023/12/28 13:07:15;;;;;;;21.27;14.45;;;;;;;;;;6253229;28;20115;-75
2023/12/28 13:10:19;;;;;;;29.95;17.77;;;;;;;;;;6253891;28;20057;-75
2023/12/28 13:13:21;;;;;;;26.25;17.98;;;;;;;;;;6252923;28;20045;-75
2023/12/28 13:16:23;;;;;;;30.85;18.27;;;;;;;;;;6253607;28;20412;-74
2023/12/28 13:19:25;;;;;;;27.52;16.85;;;;;;;;;;6255417;28;20061;-74
2023/12/28 13:22:29;;;;;;;22.77;16.63;;;;;;;;;;6252641;28;20251;-73
2023/12/28 13:25:32;;;;;;;;;;;;;;;;;;6254531;28;20057;-74
2023/12/28 13:28:34;;;;;;;25.45;16.33;;;;;;;;;;6253860;28;19989;-73
2023/12/28 13:31:36;;;;;;;26.60;16.95;;;;;;;;;;6253602;28;20053;-76
2023/12/28 13:34:40;;;;;;;25.13;16.80;;;;;;;;;;6251827;28;20144;-76
2023/12/28 13:37:43;;;;;;;26.08;16.67;;;;;;;;;;6254659;28;20036;-75
2023/12/28 13:40:46;;;;;;;23.05;16.95;;;;;;;;;;6271863;28;20385;-75
2023/12/28 13:43:48;;;;;;;25.27;17.25;;;;;;;;;;6253980;28;20063;-75
2023/12/28 13:46:50;;;;;;;25.75;16.42;;;;;;;;;;6268994;28;20091;-75
2023/12/28 13:49:52;;;;;;;25.23;16.08;;;;;;;;;;6240936;28;20441;-76
2023/12/28 13:52:53;;;;;;;27.80;15.93;;;;;;;;;;6251505;28;20278;-75
2023/12/28 13:55:56;;;;;;;21.77;14.43;;;;;;;;;;6253690;28;20057;-75
2023/12/28 13:58:58;;;;;;;25.20;16.55;;;;;;;;;;6253477;28;20084;-75
2023/12/28 14:02:00;;;;;;;23.40;16.02;;;;;;;;;;6252452;28;20064;-75
2023/12/28 14:05:02;;;;;;;24.02;15.85;;;;;;;;;;6252566;28;20049;-76
2023/12/28 14:08:05;;;;;;;22.90;16.05;;;;;;;;;;6253219;28;20045;-74
2023/12/28 14:11:09;;;;;;;23.58;16.42;;;;;;;;;;6251106;28;20049;-74
2023/12/28 14:14:11;;;;;;;;;;;;;;;;;;6252536;28;20053;-76
2023/12/28 14:17:13;;;;;;;24.08;15.40;;;;;;;;;;6251325;28;20215;-75
2023/12/28 14:20:15;;;;;;;24.73;15.55;;;;;;;;;;6251618;28;20363;-75
2023/12/28 14:23:19;;;;;;;32.35;20.02;;;;;;;;;;6253405;28;20358;-75
2023/12/28 14:26:23;;;;;;;54.15;30.80;;;;;;;;;;6250555;28;20229;-75
2023/12/28 14:29:25;;;;;;;58.40;32.53;;;;;;;;;;6252231;28;20049;-76
2023/12/28 14:32:28;;;;;;;55.53;30.60;;;;;;;;;;6251456;28;20240;-85
2023/12/28 14:35:30;;;;;;;39.05;24.38;;;;;;;;;;6250696;28;20054;-74
2023/12/28 14:38:32;;;;;;;30.33;20.35;;;;;;;;;;6250323;28;20053;-75
2023/12/28 14:41:37;;;;;;;30.55;18.05;;;;;;;;;;6250172;28;20224;-75
2023/12/28 14:44:39;;;;;;;24.17;16.88;;;;;;;;;;6251360;28;20053;-75
2023/12/28 14:47:42;;;;;;;23.17;16.48;;;;;;;;;;6278746;28;20290;-75
2023/12/28 14:50:44;;;;;;;26.23;16.20;;;;;;;;;;6251333;28;20053;-74
2023/12/28 14:53:46;;;;;;;32.42;16.85;;;;;;;;;;6249770;28;20244;-76
2023/12/28 14:56:49;;;;;;;25.77;15.80;;;;;;;;;;6252073;28;21057;-76
2023/12/28 14:59:51;;;;;;;21.85;15.35;;;;;;;;;;6251505;28;20068;-75
2023/12/28 15:02:53;;;;;;;24.38;15.77;;;;;;;;;;6251559;28;20111;-76
2023/12/28 15:05:55;;;;;;;24.33;15.32;;;;;;;;;;6250261;28;20057;-75
2023/12/28 15:08:58;;;;;;;21.50;15.52;;;;;;;;;;6253961;28;20045;-76
2023/12/28 15:12:03;;;;;;;21.43;14.30;;;;;;;;;;6253117;28;20061;-75
2023/12/28 15:15:06;;;;;;;26.85;16.30;;;;;;;;;;6252207;28;20460;-75
2023/12/28 15:18:11;;;;;;;25.73;15.53;;;;;;;;;;6249764;28;20383;-75
2023/12/28 15:21:13;;;;;;;25.48;16.00;;;;;;;;;;6253535;28;20061;-76
2023/12/28 15:24:18;;;;;;;23.90;16.35;;;;;;;;;;6250393;28;20379;-75
2023/12/28 15:27:22;;;;;;;30.90;17.65;;;;;;;;;;6252133;28;20049;-75
2023/12/28 15:30:24;;;;;;;64.47;37.08;;;;;;;;;;6250314;28;20115;-75
2023/12/28 15:33:29;;;;;;;67.72;35.13;;;;;;;;;;6251265;28;20057;-75
2023/12/28 15:36:31;;;;;;;48.58;27.10;;;;;;;;;;6250408;28;20057;-75
2023/12/28 15:39:33;;;;;;;35.22;21.38;;;;;;;;;;6253660;28;20049;-75
2023/12/28 15:42:36;;;;;;;27.00;17.20;;;;;;;;;;6256093;28;20060;-75
2023/12/28 15:45:38;;;;;;;24.52;16.30;;;;;;;;;;6253890;28;20049;-75
2023/12/28 15:48:40;;;;;;;24.02;16.27;;;;;;;;;;6254963;28;20351;-75
2023/12/28 15:51:42;;;;;;;27.75;18.25;;;;;;;;;;6255151;28;20056;-76
2023/12/28 15:54:44;;;;;;;23.10;17.05;;;;;;;;;;6255529;28;20053;-75
2023/12/28 15:57:50;;;;;;;21.65;15.45;;;;;;;;;;6254690;28;20051;-75
2023/12/28 16:00:52;;;;;;;24.38;14.68;;;;;;;;;;6255606;28;20049;-75
2023/12/28 16:03:54;;;;;;;22.98;14.52;;;;;;;;;;6254454;28;20068;-74
2023/12/28 16:06:56;;;;;;;25.02;15.65;;;;;;;;;;6252038;28;20061;-75
2023/12/28 16:09:57;;;;;;;24.88;15.30;;;;;;;;;;6254560;28;20053;-74
2023/12/28 16:13:02;;;;;;;25.45;15.02;;;;;;;;;;6227185;28;20340;-75
2023/12/28 16:16:06;;;;;;;26.58;15.35;;;;;;;;;;6267534;28;20061;-75
2023/12/28 16:19:09;;;;;;;23.50;15.48;;;;;;;;;;6228139;28;20050;-76
2023/12/28 16:22:12;;;;;;;23.17;14.85;;;;;;;;;;6230333;28;20061;-76
2023/12/28 16:25:14;;;;;;;22.13;13.88;;;;;;;;;;6229884;28;20260;-75
2023/12/28 16:28:18;;;;;;;20.50;13.30;;;;;;;;;;6228009;28;20053;-75
2023/12/28 16:31:20;;;;;;;25.05;14.93;;;;;;;;;;6229290;28;20053;-74
2023/12/28 16:34:22;;;;;;;20.73;13.20;;;;;;;;;;6226736;28;20061;-75
2023/12/28 16:37:23;;;;;;;20.88;13.50;;;;;;;;;;6230515;28;20093;-75
2023/12/28 16:40:25;;;;;;;19.90;13.90;;;;;;;;;;6227548;28;20058;-76
2023/12/28 16:43:30;;;;;;;21.58;14.27;;;;;;;;;;6229091;28;20359;-75
2023/12/28 16:46:32;;;;;;;19.25;13.27;;;;;;;;;;6227731;28;20149;-76
2023/12/28 16:49:34;;;;;;;19.23;13.45;;;;;;;;;;6228692;28;20053;-76
2023/12/28 16:52:37;;;;;;;19.38;12.65;;;;;;;;;;6229422;28;20093;-76
2023/12/28 16:55:38;;;;;;;20.60;12.43;;;;;;;;;;6227803;28;20049;-76
2023/12/28 16:58:42;;;;;;;19.67;12.25;;;;;;;;;;6229114;28;20065;-75
2023/12/28 17:01:44;;;;;;;19.20;12.07;;;;;;;;;;6230799;28;20061;-75
2023/12/28 17:04:47;;;;;;;20.90;11.70;;;;;;;;;;6227221;28;20119;-76
2023/12/28 17:07:50;;;;;;;19.15;11.32;;;;;;;;;;6228219;28;20076;-75
2023/12/28 17:10:52;;;;;;;16.92;11.18;;;;;;;;;;6230384;28;20054;-75
2023/12/28 17:13:57;;;;;;;18.23;10.75;;;;;;;;;;6260723;28;20129;-75
2023/12/28 17:16:59;;;;;;;16.70;10.23;;;;;;;;;;6227117;28;20374;-76
2023/12/28 17:20:03;;;;;;;19.33;11.50;;;;;;;;;;6230976;28;20378;-75
2023/12/28 17:23:09;;;;;;;18.87;12.57;;;;;;;;;;6211866;28;21319;-75
2023/12/28 17:26:23;;;;;;;19.30;11.60;;;;;;;;;;6261409;28;20050;-75
2023/12/28 17:29:27;;;;;;;17.60;11.85;;;;;;;;;;6228538;28;20049;-75
2023/12/28 17:32:31;;;;;;;;;;;;;;;;;;6230945;28;20053;-75
2023/12/28 17:35:33;;;;;;;18.70;12.15;;;;;;;;;;6227864;28;19933;-75
2023/12/28 17:38:36;;;;;;;17.85;10.75;;;;;;;;;;6227739;28;20050;-75
2023/12/28 17:41:39;;;;;;;17.67;11.27;;;;;;;;;;6229031;28;20255;-76
2023/12/28 17:44:44;;;;;;;17.05;11.05;;;;;;;;;;6227674;28;20061;-75